createdAt,value
2016-05-27T00:00:33.512Z,74.07
2016-05-27T00:01:33.545Z,73.79
2016-05-27T00:02:33.626Z,73.4
2016-05-27T00:03:33.645Z,73.5
2016-05-27T00:04:33.679Z,73.79
2016-05-27T00:05:33.728Z,73.4
2016-05-27T00:06:33.762Z,73.4
2016-05-27T00:07:33.812Z,73.4
2016-05-27T00:08:33.830Z,73.5
2016-05-27T00:09:33.880Z,73.69
2016-05-27T00:10:33.805Z,73.46
2016-05-27T00:11:33.963Z,73.17
2016-05-27T00:12:33.997Z,72.83
2016-05-27T00:13:33.921Z,73.4
2016-05-27T00:14:34.081Z,73.21
2016-05-27T00:15:34.130Z,72.79
2016-05-27T00:16:34.085Z,72.98
2016-05-27T00:17:34.245Z,72.98
2016-05-27T00:18:34.138Z,72.83
2016-05-27T00:19:34.297Z,73.08
2016-05-27T00:20:34.347Z,72.88
2016-05-27T00:21:34.365Z,73.36
2016-05-27T00:22:34.414Z,73.5
2016-05-27T00:23:34.448Z,73.21
2016-05-27T00:24:34.499Z,74.07
2016-05-27T00:25:34.532Z,73.69
2016-05-27T00:26:34.566Z,73.3
2016-05-27T00:27:34.615Z,73.4
2016-05-27T00:28:34.696Z,73.02
2016-05-27T00:29:34.683Z,73.3
2016-05-27T00:30:34.733Z,73.59
2016-05-27T00:31:34.798Z,73.5
2016-05-27T00:32:34.801Z,73.5
2016-05-27T00:33:34.866Z,73.08
2016-05-27T00:34:34.916Z,72.79
2016-05-27T00:35:34.793Z,73.46
2016-05-27T00:36:34.967Z,72.88
2016-05-27T00:37:35.017Z,73.08
2016-05-27T00:38:35.083Z,73.27
2016-05-27T00:39:35.100Z,73.46
2016-05-27T00:40:35.135Z,73.46
2016-05-27T00:41:35.185Z,73.55
2016-05-27T00:42:35.233Z,73.55
2016-05-27T00:43:35.268Z,73.55
2016-05-27T00:44:35.302Z,72.98
2016-05-27T00:45:35.336Z,73.75
2016-05-27T00:46:35.369Z,73.46
2016-05-27T00:47:35.419Z,73.55
2016-05-27T00:48:35.468Z,73.08
2016-05-27T00:49:35.503Z,73.27
2016-05-27T00:50:35.537Z,74.04
2016-05-27T00:51:35.430Z,73.94
2016-05-27T00:52:35.620Z,74.7
2016-05-27T00:53:35.701Z,74.48
2016-05-27T00:54:35.704Z,75.14
2016-05-27T00:55:35.737Z,74.95
2016-05-27T00:56:35.803Z,75.24
2016-05-27T00:57:35.821Z,75.34
2016-05-27T00:58:35.870Z,75.34
2016-05-27T00:59:35.905Z,76.39
2016-05-27T01:00:35.954Z,76.1
2016-05-27T01:01:35.972Z,76.1
2016-05-27T01:02:36.023Z,76.48
2016-05-27T01:03:35.915Z,76.86
2016-05-27T01:04:36.137Z,76.86
2016-05-27T01:05:36.139Z,77.15
2016-05-27T01:06:36.189Z,77.15
2016-05-27T01:07:36.223Z,77.34
2016-05-27T01:08:36.257Z,77.06
2016-05-27T01:09:36.322Z,76.77
2016-05-27T01:10:36.340Z,76.57
2016-05-27T01:11:36.405Z,76.96
2016-05-27T01:12:36.424Z,76.96
2016-05-27T01:13:36.458Z,76.77
2016-05-27T01:14:36.508Z,76.48
2016-05-27T01:15:36.557Z,76.67
2016-05-27T01:16:36.591Z,76.77
2016-05-27T01:17:36.625Z,76.2
2016-05-27T01:18:36.878Z,76.57
2016-05-27T01:19:36.724Z,76.29
2016-05-27T01:20:36.758Z,76.48
2016-05-27T01:21:36.792Z,76.29
2016-05-27T01:22:36.858Z,76.29
2016-05-27T01:23:36.890Z,76.48
2016-05-27T01:24:36.909Z,76.29
2016-05-27T01:25:36.959Z,76.29
2016-05-27T01:26:36.977Z,76.57
2016-05-27T01:27:37.027Z,76.2
2016-05-27T01:28:37.077Z,76
2016-05-27T01:29:37.126Z,76.1
2016-05-27T01:30:37.160Z,76.39
2016-05-27T01:31:37.178Z,76.29
2016-05-27T01:32:37.228Z,76.29
2016-05-27T01:33:37.559Z,76.48
2016-05-27T01:34:37.312Z,76.48
2016-05-27T01:35:37.345Z,76.1
2016-05-27T01:36:37.394Z,76.77
2016-05-27T01:37:37.445Z,76.39
2016-05-27T01:38:37.478Z,76.2
2016-05-27T01:39:37.372Z,76
2016-05-27T01:40:37.561Z,76.39
2016-05-27T01:41:37.596Z,75.62
2016-05-27T01:42:37.645Z,75.91
2016-05-27T01:43:37.695Z,75.71
2016-05-27T01:44:37.713Z,76
2016-05-27T01:45:37.763Z,75.62
2016-05-27T01:46:37.813Z,75.71
2016-05-27T01:47:37.877Z,75.24
2016-05-27T01:48:37.927Z,75.91
2016-05-27T01:49:37.916Z,76
2016-05-27T01:50:38.017Z,75.43
2016-05-27T01:51:38.039Z,75.24
2016-05-27T01:52:38.092Z,75.62
2016-05-27T01:53:38.161Z,75.91
2016-05-27T01:54:38.212Z,75.71
2016-05-27T01:55:38.269Z,75.91
2016-05-27T01:56:38.153Z,76
2016-05-27T01:57:38.350Z,75.91
2016-05-27T01:58:38.407Z,76.29
2016-05-27T01:59:38.446Z,76.2
2016-05-27T02:00:38.499Z,75.71
2016-05-27T02:01:38.552Z,76.39
2016-05-27T02:02:38.587Z,75.91
2016-05-27T02:03:38.765Z,75.81
2016-05-27T02:04:38.661Z,76
2016-05-27T02:05:38.586Z,75.71
2016-05-27T02:06:38.762Z,75.71
2016-05-27T02:07:38.781Z,76
2016-05-27T02:08:38.879Z,75.71
2016-05-27T02:09:38.881Z,75.81
2016-05-27T02:10:38.916Z,75.91
2016-05-27T02:11:38.950Z,76.1
2016-05-27T02:12:39.016Z,76
2016-05-27T02:13:38.878Z,75.71
2016-05-27T02:14:39.068Z,76.2
2016-05-27T02:15:39.133Z,75.71
2016-05-27T02:16:39.152Z,76
2016-05-27T02:17:39.202Z,76
2016-05-27T02:18:39.267Z,76.2
2016-05-27T02:19:39.270Z,76.1
2016-05-27T02:20:39.319Z,76.77
2016-05-27T02:21:39.196Z,76.39
2016-05-27T02:22:39.402Z,76.96
2016-05-27T02:23:38.734Z,76.96
2016-05-27T02:24:39.471Z,76.77
2016-05-27T02:25:39.504Z,77.34
2016-05-27T02:26:39.585Z,77.06
2016-05-27T02:27:39.603Z,77.11
2016-05-27T02:28:39.637Z,77.01
2016-05-27T02:29:39.671Z,77.69
2016-05-27T02:30:39.721Z,77.78
2016-05-27T02:31:39.755Z,77.5
2016-05-27T02:32:39.789Z,77.5
2016-05-27T02:33:39.713Z,77.44
2016-05-27T02:34:39.889Z,77.97
2016-05-27T02:35:39.766Z,78.16
2016-05-27T02:36:39.956Z,78.07
2016-05-27T02:37:39.989Z,78.36
2016-05-27T02:38:40.040Z,78.36
2016-05-27T02:39:39.917Z,79.02
2016-05-27T02:40:40.154Z,78.83
2016-05-27T02:41:40.157Z,78.45
2016-05-27T02:42:40.191Z,78.26
2016-05-27T02:43:40.256Z,78.55
2016-05-27T02:44:40.306Z,78.45
2016-05-27T02:45:40.324Z,79.02
2016-05-27T02:46:40.357Z,79.22
2016-05-27T02:47:40.282Z,79.41
2016-05-27T02:48:41.097Z,79.22
2016-05-27T02:49:40.475Z,79.12
2016-05-27T02:50:40.557Z,79.22
2016-05-27T02:51:40.574Z,79.41
2016-05-27T02:52:40.608Z,79.22
2016-05-27T02:53:40.643Z,79.31
2016-05-27T02:54:40.567Z,79.22
2016-05-27T02:55:40.726Z,79.31
2016-05-27T02:56:40.604Z,79.02
2016-05-27T02:57:40.793Z,79.12
2016-05-27T02:58:40.859Z,79.31
2016-05-27T02:59:40.877Z,79.5
2016-05-27T03:00:40.927Z,79.22
2016-05-27T03:01:40.962Z,79.69
2016-05-27T03:02:40.839Z,79.02
2016-05-27T03:03:40.904Z,79.31
2016-05-27T03:04:40.922Z,79.41
2016-05-27T03:05:41.175Z,79.41
2016-05-27T03:06:41.162Z,79.02
2016-05-27T03:07:41.196Z,79.6
2016-05-27T03:08:41.261Z,79.79
2016-05-27T03:09:41.311Z,79.22
2016-05-27T03:10:41.329Z,79.79
2016-05-27T03:11:41.363Z,79.6
2016-05-27T03:12:41.256Z,79.41
2016-05-27T03:13:41.446Z,79.41
2016-05-27T03:14:41.481Z,78.83
2016-05-27T03:15:41.530Z,79.5
2016-05-27T03:16:41.423Z,78.83
2016-05-27T03:17:41.597Z,78.93
2016-05-27T03:18:41.647Z,78.83
2016-05-27T03:19:41.713Z,78.64
2016-05-27T03:20:41.575Z,78.55
2016-05-27T03:21:41.765Z,78.74
2016-05-27T03:22:41.799Z,78.55
2016-05-27T03:23:41.849Z,79.06
2016-05-27T03:24:41.882Z,79.02
2016-05-27T03:25:41.916Z,78.83
2016-05-27T03:26:41.965Z,78.93
2016-05-27T03:27:41.999Z,78.45
2016-05-27T03:28:42.034Z,78.3
2016-05-27T03:29:42.083Z,78.3
2016-05-27T03:30:42.164Z,78.39
2016-05-27T03:31:42.167Z,78.39
2016-05-27T03:32:42.201Z,78.39
2016-05-27T03:33:42.250Z,78.01
2016-05-27T03:34:42.284Z,78.68
2016-05-27T03:35:42.318Z,78.26
2016-05-27T03:36:42.367Z,78.01
2016-05-27T03:37:42.417Z,78.55
2016-05-27T03:38:42.467Z,78.11
2016-05-27T03:39:42.484Z,78.01
2016-05-27T03:40:42.519Z,78.01
2016-05-27T03:41:42.412Z,78.26
2016-05-27T03:42:42.603Z,78.2
2016-05-27T03:43:42.636Z,78.39
2016-05-27T03:44:42.717Z,78.2
2016-05-27T03:45:42.720Z,78.01
2016-05-27T03:46:42.769Z,78.2
2016-05-27T03:47:42.803Z,78.11
2016-05-27T03:48:42.884Z,78.11
2016-05-27T03:49:42.886Z,78.01
2016-05-27T03:50:42.936Z,78.01
2016-05-27T03:51:42.971Z,77.82
2016-05-27T03:52:43.051Z,77.53
2016-05-27T03:53:42.882Z,77.34
2016-05-27T03:54:42.932Z,77.82
2016-05-27T03:55:43.137Z,78.01
2016-05-27T03:56:43.171Z,77.34
2016-05-27T03:57:43.205Z,77.44
2016-05-27T03:58:43.254Z,77.63
2016-05-27T03:59:43.304Z,77.67
2016-05-27T04:00:43.338Z,77.48
2016-05-27T04:01:43.387Z,77.76
2016-05-27T04:02:43.437Z,77.48
2016-05-27T04:03:44.143Z,77.67
2016-05-27T04:04:43.490Z,77.57
2016-05-27T04:05:43.367Z,77.86
2016-05-27T04:06:43.573Z,77.28
2016-05-27T04:07:43.623Z,77.76
2016-05-27T04:08:43.516Z,77.38
2016-05-27T04:09:43.690Z,77.38
2016-05-27T04:10:43.787Z,77.28
2016-05-27T04:11:43.775Z,77.28
2016-05-27T04:12:43.823Z,77
2016-05-27T04:13:43.717Z,77.09
2016-05-27T04:14:43.891Z,77.28
2016-05-27T04:15:43.941Z,76.94
2016-05-27T04:16:43.975Z,77.38
2016-05-27T04:17:44.025Z,77.19
2016-05-27T04:18:44.074Z,77.51
2016-05-27T04:19:44.092Z,77.51
2016-05-27T04:20:44.142Z,77.23
2016-05-27T04:21:44.176Z,76.94
2016-05-27T04:22:44.241Z,76.84
2016-05-27T04:23:44.275Z,77.04
2016-05-27T04:24:44.340Z,76.27
2016-05-27T04:25:44.344Z,76.56
2016-05-27T04:26:44.393Z,76.37
2016-05-27T04:27:44.426Z,76.75
2016-05-27T04:28:44.476Z,76.37
2016-05-27T04:29:44.510Z,76.75
2016-05-27T04:30:44.559Z,76.46
2016-05-27T04:31:44.593Z,76.65
2016-05-27T04:32:44.674Z,76.56
2016-05-27T04:33:45.739Z,76.27
2016-05-27T04:34:44.726Z,76.27
2016-05-27T04:35:44.760Z,76.27
2016-05-27T04:36:44.825Z,76.46
2016-05-27T04:37:44.687Z,76.18
2016-05-27T04:38:44.878Z,76.65
2016-05-27T04:39:44.787Z,76.27
2016-05-27T04:40:44.961Z,76.18
2016-05-27T04:41:44.870Z,76.18
2016-05-27T04:42:45.045Z,76.31
2016-05-27T04:43:45.126Z,76.37
2016-05-27T04:44:45.128Z,76.4
2016-05-27T04:45:45.162Z,76.5
2016-05-27T04:46:45.384Z,76.12
2016-05-27T04:47:45.246Z,75.83
2016-05-27T04:48:45.280Z,75.93
2016-05-27T04:49:45.329Z,75.45
2016-05-27T04:50:45.363Z,75.35
2016-05-27T04:51:45.257Z,75.54
2016-05-27T04:52:45.478Z,75.2
2016-05-27T04:53:45.480Z,75.07
2016-05-27T04:54:45.577Z,74.97
2016-05-27T04:55:45.580Z,74.97
2016-05-27T04:56:45.457Z,74.87
2016-05-27T04:57:45.663Z,75.16
2016-05-27T04:58:45.697Z,74.72
2016-05-27T04:59:45.747Z,74.05
2016-05-27T05:00:45.781Z,74.33
2016-05-27T05:01:45.830Z,74.33
2016-05-27T05:02:45.864Z,74.24
2016-05-27T05:03:45.773Z,74.15
2016-05-27T05:04:45.948Z,73.86
2016-05-27T05:05:46.012Z,74.05
2016-05-27T05:06:46.015Z,73.86
2016-05-27T05:07:46.081Z,73.09
2016-05-27T05:08:46.099Z,73.76
2016-05-27T05:09:46.164Z,73.38
2016-05-27T05:10:46.183Z,73.66
2016-05-27T05:11:46.311Z,74.15
2016-05-27T05:12:46.298Z,73.76
2016-05-27T05:13:46.332Z,73.38
2016-05-27T05:14:46.350Z,73.76
2016-05-27T05:15:46.400Z,73.57
2016-05-27T05:16:46.449Z,73.66
2016-05-27T05:17:46.483Z,73.51
2016-05-27T05:18:47.361Z,73.57
2016-05-27T05:19:46.863Z,72.94
2016-05-27T05:20:46.491Z,73.13
2016-05-27T05:21:47.055Z,73.19
2016-05-27T05:22:46.683Z,73.03
2016-05-27T05:23:46.577Z,73.13
2016-05-27T05:24:46.783Z,72.74
2016-05-27T05:25:46.660Z,73.32
2016-05-27T05:26:46.882Z,72.45
2016-05-27T05:27:46.900Z,72.64
2016-05-27T05:28:46.935Z,72.36
2016-05-27T05:29:46.985Z,72.36
2016-05-27T05:30:47.048Z,72.64
2016-05-27T05:31:47.349Z,72.07
2016-05-27T05:32:47.102Z,72.17
2016-05-27T05:33:47.151Z,71.69
2016-05-27T05:34:47.201Z,71.78
2016-05-27T05:35:47.235Z,71.21
2016-05-27T05:36:47.268Z,71.11
2016-05-27T05:37:47.381Z,71.25
2016-05-27T05:38:47.352Z,71.34
2016-05-27T05:39:47.229Z,71.25
2016-05-27T05:40:47.435Z,71.25
2016-05-27T05:41:47.484Z,71.34
2016-05-27T05:42:48.457Z,71.25
2016-05-27T05:43:47.568Z,71.25
2016-05-27T05:44:47.602Z,71.05
2016-05-27T05:45:47.667Z,71.34
2016-05-27T05:46:47.686Z,70.86
2016-05-27T05:47:47.735Z,70.67
2016-05-27T05:48:48.988Z,70.86
2016-05-27T05:49:47.803Z,70.76
2016-05-27T05:50:48.666Z,70.57
2016-05-27T05:51:48.933Z,70.09
2016-05-27T05:52:51.842Z,70.76
2016-05-27T05:53:49.266Z,70.51
2016-05-27T05:54:48.833Z,70.57
2016-05-27T05:55:48.991Z,70.32
2016-05-27T05:56:48.103Z,70.51
2016-05-27T05:57:49.043Z,70.51
2016-05-27T05:58:48.187Z,70.23
2016-05-27T05:59:48.221Z,69.84
2016-05-27T06:00:49.052Z,68.98
2016-05-27T06:01:48.321Z,69.2
2016-05-27T06:02:49.744Z,68.88
2016-05-27T06:03:49.076Z,69.11
2016-05-27T06:04:48.453Z,68.63
2016-05-27T06:05:48.534Z,68.91
2016-05-27T06:06:48.584Z,69.01
2016-05-27T06:07:48.571Z,68.15
2016-05-27T06:08:48.448Z,68.63
2016-05-27T06:09:49.248Z,68.15
2016-05-27T06:10:49.610Z,68.24
2016-05-27T06:11:48.753Z,68.44
2016-05-27T06:12:48.786Z,68.34
2016-05-27T06:13:48.821Z,67.9
2016-05-27T06:14:48.870Z,67.61
2016-05-27T06:15:50.170Z,67.41
2016-05-27T06:16:48.781Z,67.61
2016-05-27T06:17:48.989Z,66.93
2016-05-27T06:18:48.897Z,66.84
2016-05-27T06:19:49.071Z,67.13
2016-05-27T06:20:49.122Z,67.35
2016-05-27T06:21:49.030Z,66.87
2016-05-27T06:22:49.517Z,66.77
2016-05-27T06:23:50.519Z,66.3
2016-05-27T06:24:50.147Z,66
2016-05-27T06:25:49.369Z,66
2016-05-27T06:26:49.371Z,65.33
2016-05-27T06:27:49.968Z,66.04
2016-05-27T06:28:49.471Z,65.94
2016-05-27T06:29:49.505Z,66
2016-05-27T06:30:50.273Z,65.81
2016-05-27T06:31:49.619Z,65.72
2016-05-27T06:32:49.622Z,65.62
2016-05-27T06:33:49.515Z,65.72
2016-05-27T06:34:49.596Z,65.81
2016-05-27T06:35:49.802Z,65.62
2016-05-27T06:36:51.632Z,65.43
2016-05-27T06:37:50.448Z,65.62
2016-05-27T06:38:50.310Z,65.81
2016-05-27T06:39:49.922Z,66
2016-05-27T06:40:49.972Z,65.43
2016-05-27T06:41:50.006Z,65.66
2016-05-27T06:42:49.898Z,65.56
2016-05-27T06:43:49.949Z,65.66
2016-05-27T06:44:49.982Z,65.84
2016-05-27T06:45:50.250Z,65.27
2016-05-27T06:46:50.222Z,65.56
2016-05-27T06:47:50.115Z,65.75
2016-05-27T06:48:52.243Z,65.84
2016-05-27T06:49:50.370Z,65.66
2016-05-27T06:50:50.389Z,65.75
2016-05-27T06:51:50.283Z,65.56
2016-05-27T06:52:50.488Z,65.66
2016-05-27T06:53:50.600Z,65.84
2016-05-27T06:54:50.634Z,65.17
2016-05-27T06:55:50.621Z,65.27
2016-05-27T06:56:51.125Z,64.79
2016-05-27T06:57:50.721Z,65.08
2016-05-27T06:58:51.224Z,65.17
2016-05-27T06:59:50.835Z,65.27
2016-05-27T07:00:50.931Z,65.08
2016-05-27T07:01:51.028Z,64.43
2016-05-27T07:02:50.922Z,64.05
2016-05-27T07:03:51.127Z,64.05
2016-05-27T07:04:51.004Z,64.25
2016-05-27T07:05:51.039Z,63.76
2016-05-27T07:06:51.088Z,63.57
2016-05-27T07:07:51.137Z,63.67
2016-05-27T07:08:51.282Z,63.48
2016-05-27T07:09:51.206Z,63.38
2016-05-27T07:10:51.256Z,63.76
2016-05-27T07:11:51.586Z,63.18
2016-05-27T07:12:51.401Z,63.76
2016-05-27T07:13:51.264Z,63.18
2016-05-27T07:14:51.437Z,63.48
2016-05-27T07:15:51.550Z,63.38
2016-05-27T07:16:51.537Z,62.99
2016-05-27T07:17:51.570Z,63.41
2016-05-27T07:18:51.637Z,63.12
2016-05-27T07:19:51.655Z,63.31
2016-05-27T07:20:51.533Z,63.31
2016-05-27T07:21:51.738Z,63.02
2016-05-27T07:22:51.914Z,62.93
2016-05-27T07:23:51.822Z,63.12
2016-05-27T07:24:51.699Z,63.02
2016-05-27T07:25:51.921Z,63.41
2016-05-27T07:26:51.799Z,63.12
2016-05-27T07:27:51.989Z,62.64
2016-05-27T07:28:52.038Z,62.35
2016-05-27T07:29:52.088Z,62.16
2016-05-27T07:30:52.528Z,62.87
2016-05-27T07:31:52.328Z,62.38
2016-05-27T07:32:52.221Z,62.19
2016-05-27T07:33:52.129Z,62.38
2016-05-27T07:34:52.289Z,62.19
2016-05-27T07:35:53.541Z,62
2016-05-27T07:36:52.669Z,61.42
2016-05-27T07:37:52.438Z,62.29
2016-05-27T07:38:52.518Z,61.93
2016-05-27T07:39:52.551Z,61.52
2016-05-27T07:40:52.571Z,62.22
2016-05-27T07:41:52.604Z,62.22
2016-05-27T07:42:52.670Z,62.03
2016-05-27T07:43:52.781Z,60.87
2016-05-27T07:44:52.738Z,61.16
2016-05-27T07:45:52.645Z,61.35
2016-05-27T07:46:52.728Z,61.1
2016-05-27T07:47:52.856Z,61
2016-05-27T07:48:52.904Z,61.1
2016-05-27T07:49:52.813Z,60.52
2016-05-27T07:50:53.035Z,60.42
2016-05-27T07:51:53.069Z,60.42
2016-05-27T07:52:53.086Z,60.61
2016-05-27T07:53:53.121Z,59.75
2016-05-27T07:54:53.202Z,59.55
2016-05-27T07:55:53.204Z,59.27
2016-05-27T07:56:53.238Z,58.88
2016-05-27T07:57:53.288Z,58.91
2016-05-27T07:58:53.338Z,58.97
2016-05-27T07:59:53.387Z,59.17
2016-05-27T08:00:53.437Z,59.55
2016-05-27T08:01:53.502Z,59.45
2016-05-27T08:02:53.520Z,59.65
2016-05-27T08:03:53.569Z,60.23
2016-05-27T08:04:53.822Z,60.52
2016-05-27T08:05:53.654Z,60.61
2016-05-27T08:06:53.702Z,60.61
2016-05-27T08:07:53.737Z,60.9
2016-05-27T08:08:53.817Z,61.29
2016-05-27T08:09:53.821Z,60.61
2016-05-27T08:10:54.104Z,60.55
2016-05-27T08:11:53.982Z,59.87
2016-05-27T08:12:53.984Z,59.3
2016-05-27T08:13:54.004Z,59.58
2016-05-27T08:14:53.959Z,59.1
2016-05-27T08:15:54.118Z,59.32
2016-05-27T08:16:54.151Z,58.75
2016-05-27T08:17:54.889Z,59.03
2016-05-27T08:18:54.204Z,58.29
2016-05-27T08:19:54.191Z,58.19
2016-05-27T08:20:54.319Z,58.19
2016-05-27T08:21:54.353Z,58.39
2016-05-27T08:22:54.402Z,57.74
2016-05-27T08:23:54.437Z,56.96
2016-05-27T08:24:54.486Z,56.77
2016-05-27T08:25:54.535Z,56.39
2016-05-27T08:26:54.585Z,56.2
2016-05-27T08:27:54.775Z,54.87
2016-05-27T08:28:54.669Z,54.97
2016-05-27T08:29:54.749Z,54.87
2016-05-27T08:30:54.611Z,54.58
2016-05-27T08:31:54.802Z,54.49
2016-05-27T08:32:54.851Z,54.68
2016-05-27T08:33:55.025Z,54.75
2016-05-27T08:34:55.872Z,55.04
2016-05-27T08:35:54.985Z,54.84
2016-05-27T08:36:56.065Z,54.46
2016-05-27T08:37:55.193Z,54.46
2016-05-27T08:38:55.132Z,54.07
2016-05-27T08:39:55.010Z,53.91
2016-05-27T08:40:55.841Z,53.97
2016-05-27T08:41:55.282Z,53.81
2016-05-27T08:42:55.299Z,53.42
2016-05-27T08:43:55.334Z,53.81
2016-05-27T08:44:55.415Z,53.33
2016-05-27T08:45:55.432Z,52.45
2016-05-27T08:46:55.482Z,52.65
2016-05-27T08:47:55.407Z,52.17
2016-05-27T08:48:55.644Z,52.45
2016-05-27T08:49:55.850Z,52.87
2016-05-27T08:50:55.650Z,52.29
2016-05-27T08:51:55.746Z,52.19
2016-05-27T08:52:55.765Z,52.58
2016-05-27T08:53:55.798Z,52.09
2016-05-27T08:54:55.848Z,51.13
2016-05-27T08:55:55.928Z,51.44
2016-05-27T08:56:55.931Z,51.25
2016-05-27T08:57:55.981Z,52.02
2016-05-27T08:58:56.061Z,51.93
2016-05-27T08:59:56.002Z,51.83
2016-05-27T09:00:56.129Z,51.08
2016-05-27T09:01:56.289Z,50.6
2016-05-27T09:02:56.260Z,51.18
2016-05-27T09:03:56.169Z,50.79
2016-05-27T09:04:56.297Z,50.79
2016-05-27T09:05:56.346Z,50.43
2016-05-27T09:06:56.427Z,49.75
2016-05-27T09:07:56.446Z,50.14
2016-05-27T09:08:56.494Z,49.77
2016-05-27T09:09:56.529Z,49.29
2016-05-27T09:10:56.610Z,48.61
2016-05-27T09:11:56.612Z,48.13
2016-05-27T09:12:56.693Z,47.77
2016-05-27T09:13:56.711Z,47.38
2016-05-27T09:14:57.168Z,47.28
2016-05-27T09:15:56.842Z,46.33
2016-05-27T09:16:56.719Z,45.85
2016-05-27T09:17:56.893Z,45.07
2016-05-27T09:18:57.022Z,45.56
2016-05-27T09:19:57.087Z,44.01
2016-05-27T09:20:57.089Z,44.2
2016-05-27T09:21:57.108Z,44.1
2016-05-27T09:22:57.141Z,43.91
2016-05-27T09:23:57.254Z,43.91
2016-05-27T09:24:57.226Z,43.43
2016-05-27T09:25:57.353Z,44.13
2016-05-27T09:26:57.325Z,42.17
2016-05-27T09:27:57.514Z,42.29
2016-05-27T09:28:57.423Z,42.94
2016-05-27T09:29:57.473Z,42.57
2016-05-27T09:30:57.522Z,42.94
2016-05-27T09:31:57.572Z,43.26
2016-05-27T09:32:57.481Z,42.48
2016-05-27T09:33:57.655Z,42.48
2016-05-27T09:34:57.580Z,42.67
2016-05-27T09:35:57.755Z,42.36
2016-05-27T09:36:57.836Z,42.38
2016-05-27T09:37:57.838Z,42.85
2016-05-27T09:38:57.904Z,42.46
2016-05-27T09:39:57.938Z,42.07
2016-05-27T09:40:57.846Z,42.07
2016-05-27T09:41:58.052Z,42.19
2016-05-27T09:42:58.086Z,42.36
2016-05-27T09:43:58.182Z,42.46
2016-05-27T09:44:58.185Z,42.09
2016-05-27T09:45:58.219Z,41.41
2016-05-27T09:46:58.268Z,41.49
2016-05-27T09:47:58.162Z,41.02
2016-05-27T09:48:58.368Z,40.54
2016-05-27T09:49:58.433Z,40.64
2016-05-27T09:50:58.482Z,40.83
2016-05-27T09:51:58.532Z,40.64
2016-05-27T09:52:58.628Z,40.83
2016-05-27T09:53:58.709Z,40.83
2016-05-27T09:54:58.650Z,40.75
2016-05-27T09:55:58.715Z,40.95
2016-05-27T09:56:58.748Z,40.97
2016-05-27T09:57:58.814Z,40.58
2016-05-27T09:58:58.847Z,39.9
2016-05-27T09:59:58.898Z,39.51
2016-05-27T10:00:58.931Z,39.7
2016-05-27T10:01:58.997Z,39.51
2016-05-27T10:02:59.077Z,39.03
2016-05-27T10:03:58.924Z,39.11
2016-05-27T10:04:59.488Z,39.88
2016-05-27T10:05:59.180Z,39.98
2016-05-27T10:06:59.230Z,39.69
2016-05-27T10:07:59.278Z,39.59
2016-05-27T10:08:59.343Z,39.7
2016-05-27T10:09:59.408Z,39.7
2016-05-27T10:10:59.582Z,39.7
2016-05-27T10:11:59.445Z,39.8
2016-05-27T10:12:59.527Z,40
2016-05-27T10:13:59.560Z,39.53
2016-05-27T10:14:59.610Z,39.62
2016-05-27T10:15:59.643Z,39.82
2016-05-27T10:16:59.724Z,39.82
2016-05-27T10:17:59.759Z,39.72
2016-05-27T10:18:59.637Z,39.92
2016-05-27T10:19:59.701Z,39.24
2016-05-27T10:20:59.938Z,39.34
2016-05-27T10:21:59.784Z,39.43
2016-05-27T10:22:59.990Z,39.04
2016-05-27T10:24:00.040Z,39.24
2016-05-27T10:25:00.090Z,38.95
2016-05-27T10:26:00.139Z,39.14
2016-05-27T10:27:00.189Z,38.83
2016-05-27T10:28:03.582Z,38.54
2016-05-27T10:29:00.272Z,38.83
2016-05-27T10:30:00.322Z,38.64
2016-05-27T10:31:00.387Z,38.73
2016-05-27T10:32:00.452Z,38.42
2016-05-27T10:33:00.470Z,38.52
2016-05-27T10:34:01.020Z,39.01
2016-05-27T10:35:00.741Z,38.71
2016-05-27T10:36:00.603Z,39.98
2016-05-27T10:37:00.653Z,39.78
2016-05-27T10:38:00.702Z,39.86
2016-05-27T10:39:00.628Z,40.92
2016-05-27T10:40:00.802Z,40.85
2016-05-27T10:41:00.835Z,40.83
2016-05-27T10:42:00.917Z,40.46
2016-05-27T10:43:05.826Z,40.95
2016-05-27T10:44:00.985Z,41.14
2016-05-27T10:45:01.035Z,39.9
2016-05-27T10:46:01.084Z,39.22
2016-05-27T10:47:01.149Z,39.41
2016-05-27T10:48:04.542Z,40
2016-05-27T10:49:01.232Z,40
2016-05-27T10:50:02.765Z,39.92
2016-05-27T10:51:01.331Z,39.24
2016-05-27T10:52:01.397Z,38.87
2016-05-27T10:53:01.431Z,38.39
2016-05-27T10:54:01.589Z,37.82
2016-05-27T10:55:01.514Z,36.98
2016-05-27T10:56:01.657Z,35.85
2016-05-27T10:57:01.639Z,34.73
2016-05-27T10:58:01.730Z,33.98
2016-05-27T10:59:01.821Z,32.73
2016-05-27T11:00:01.708Z,32.06
2016-05-27T11:01:02.018Z,31.57
2016-05-27T11:02:02.155Z,31.2
2016-05-27T11:03:02.073Z,31.1
2016-05-27T11:04:02.148Z,30.2
2016-05-27T11:05:02.315Z,30.3
2016-05-27T11:06:03.281Z,30.19
2016-05-27T11:07:02.303Z,30.19
2016-05-27T11:08:02.418Z,30.76
2016-05-27T11:09:02.409Z,31.33
2016-05-27T11:10:02.462Z,31.43
2016-05-27T11:11:02.719Z,31.6
2016-05-27T11:12:02.581Z,32.08
2016-05-27T11:13:02.616Z,32.16
2016-05-27T11:14:02.666Z,32.34
2016-05-27T11:15:02.749Z,32.92
2016-05-27T11:16:03.175Z,33.39
2016-05-27T11:17:02.834Z,34.06
2016-05-27T11:18:02.869Z,33.65
2016-05-27T11:19:02.933Z,34.14
2016-05-27T11:20:02.984Z,34.72
2016-05-27T11:21:04.799Z,34.52
2016-05-27T11:22:03.115Z,34.9
2016-05-27T11:23:03.118Z,35.29
2016-05-27T11:24:02.996Z,36.15
2016-05-27T11:25:03.405Z,36.44
2016-05-27T11:26:03.300Z,36.34
2016-05-27T11:27:03.317Z,36.63
2016-05-27T11:28:03.195Z,37.02
2016-05-27T11:29:03.447Z,37.32
2016-05-27T11:30:03.450Z,37.22
2016-05-27T11:31:05.984Z,37.22
2016-05-27T11:32:03.393Z,36.73
2016-05-27T11:33:03.630Z,36.75
2016-05-27T11:34:03.648Z,36.63
2016-05-27T11:35:03.699Z,36.94
2016-05-27T11:36:04.045Z,37.04
2016-05-27T11:37:03.797Z,36.94
2016-05-27T11:38:03.847Z,37.24
2016-05-27T11:39:03.881Z,36.85
2016-05-27T11:40:03.946Z,36.75
2016-05-27T11:41:04.590Z,36.87
2016-05-27T11:42:04.029Z,36.87
2016-05-27T11:43:03.923Z,36.47
2016-05-27T11:44:04.129Z,36.38
2016-05-27T11:45:04.209Z,36.28
2016-05-27T11:46:04.431Z,36.57
2016-05-27T11:47:04.293Z,36.67
2016-05-27T11:48:04.327Z,36.57
2016-05-27T11:49:04.376Z,35.99
2016-05-27T11:50:04.270Z,36.28
2016-05-27T11:51:04.506Z,36.28
2016-05-27T11:52:04.510Z,36.28
2016-05-27T11:53:04.403Z,36.08
2016-05-27T11:54:04.624Z,36.08
2016-05-27T11:55:04.658Z,36.38
2016-05-27T11:56:05.442Z,36.46
2016-05-27T11:57:04.772Z,36.47
2016-05-27T11:58:04.807Z,36.16
2016-05-27T11:59:04.857Z,36.18
2016-05-27T12:00:04.905Z,36.26
2016-05-27T12:01:05.206Z,35.68
2016-05-27T12:02:04.990Z,36.16
2016-05-27T12:03:05.055Z,36.85
2016-05-27T12:04:04.932Z,36.57
2016-05-27T12:05:05.201Z,36.67
2016-05-27T12:06:05.047Z,36.77
2016-05-27T12:07:05.238Z,36.57
2016-05-27T12:08:05.318Z,36.77
2016-05-27T12:09:05.337Z,36.47
2016-05-27T12:10:05.386Z,36.47
2016-05-27T12:11:07.124Z,36.57
2016-05-27T12:12:05.485Z,36.67
2016-05-27T12:13:05.535Z,36.67
2016-05-27T12:14:05.568Z,36.47
2016-05-27T12:15:05.665Z,36.77
2016-05-27T12:16:05.684Z,36.67
2016-05-27T12:17:05.733Z,36.38
2016-05-27T12:18:05.798Z,36.18
2016-05-27T12:19:05.691Z,36.28
2016-05-27T12:20:05.835Z,36.3
2016-05-27T12:21:05.916Z,36.2
2016-05-27T12:22:06.011Z,35.81
2016-05-27T12:23:06.015Z,35.52
2016-05-27T12:24:06.064Z,35.15
2016-05-27T12:25:06.145Z,34.68
2016-05-27T12:26:06.164Z,34.4
2016-05-27T12:27:06.228Z,33.15
2016-05-27T12:28:06.106Z,33.85
2016-05-27T12:29:06.327Z,33.09
2016-05-27T12:30:06.221Z,32.11
2016-05-27T12:31:06.411Z,32.03
2016-05-27T12:32:06.523Z,31.74
2016-05-27T12:33:06.510Z,31.36
2016-05-27T12:34:06.763Z,31.07
2016-05-27T12:35:06.500Z,30.68
2016-05-27T12:36:06.675Z,30.29
2016-05-27T12:37:06.709Z,30.09
2016-05-27T12:38:06.774Z,30.19
2016-05-27T12:39:06.808Z,30.37
2016-05-27T12:40:06.873Z,30.86
2016-05-27T12:41:06.766Z,31.05
2016-05-27T12:42:06.832Z,31.04
2016-05-27T12:43:07.053Z,31.02
2016-05-27T12:44:08.040Z,31.51
2016-05-27T12:45:07.120Z,31.31
2016-05-27T12:46:07.201Z,31.79
2016-05-27T12:47:07.236Z,32.08
2016-05-27T12:48:07.301Z,32.26
2016-05-27T12:49:07.788Z,32.65
2016-05-27T12:50:07.384Z,32.84
2016-05-27T12:51:07.512Z,33.41
2016-05-27T12:52:07.468Z,33.12
2016-05-27T12:53:07.548Z,33.02
2016-05-27T12:54:07.583Z,33.88
2016-05-27T12:55:07.632Z,33.69
2016-05-27T12:56:07.697Z,34.08
2016-05-27T12:57:07.716Z,34.35